sensor_id;sensor_type;location;lat;lon;timestamp;temperature;humidity
58865;DHT22;45702;52.982;6.658;2023-04-25T00:04:23;7.30;99.90
58865;DHT22;45702;52.982;6.658;2023-04-25T00:06:48;7.30;99.90
58865;DHT22;45702;52.982;6.658;2023-04-25T00:09:14;7.20;99.90
58865;DHT22;45702;52.982;6.658;2023-04-25T00:11:40;7.20;99.90
58865;DHT22;45702;52.982;6.658;2023-04-25T00:14:06;7.20;99.90
58865;DHT22;45702;52.982;6.658;2023-04-25T00:16:32;7.20;99.90
58865;DHT22;45702;52.982;6.658;2023-04-25T00:19:01;7.20;99.90
58865;DHT22;45702;52.982;6.658;2023-04-25T00:21:27;7.20;99.90
58865;DHT22;45702;52.982;6.658;2023-04-25T00:23:53;7.20;99.90
58865;DHT22;45702;52.982;6.658;2023-04-25T00:26:20;7.20;99.90
58865;DHT22;45702;52.982;6.658;2023-04-25T00:28:47;7.20;99.90
58865;DHT22;45702;52.982;6.658;2023-04-25T00:31:12;7.20;99.90
58865;DHT22;45702;52.982;6.658;2023-04-25T00:33:38;7.20;99.90
58865;DHT22;45702;52.982;6.658;2023-04-25T00:36:04;7.20;99.90
58865;DHT22;45702;52.982;6.658;2023-04-25T00:38:30;7.20;99.90
58865;DHT22;45702;52.982;6.658;2023-04-25T00:40:56;7.20;99.90
58865;DHT22;45702;52.982;6.658;2023-04-25T00:43:26;7.20;99.90
58865;DHT22;45702;52.982;6.658;2023-04-25T00:45:52;7.10;99.90
58865;DHT22;45702;52.982;6.658;2023-04-25T00:48:20;7.10;99.90
58865;DHT22;45702;52.982;6.658;2023-04-25T00:50:54;7.10;99.90
58865;DHT22;45702;52.982;6.658;2023-04-25T00:53:25;7.10;99.90
58865;DHT22;45702;52.982;6.658;2023-04-25T00:55:51;7.00;99.90
58865;DHT22;45702;52.982;6.658;2023-04-25T00:58:18;7.00;99.90
58865;DHT22;45702;52.982;6.658;2023-04-25T01:00:45;7.00;99.90
58865;DHT22;45702;52.982;6.658;2023-04-25T01:03:15;6.90;99.90
58865;DHT22;45702;52.982;6.658;2023-04-25T01:05:42;6.90;99.90
58865;DHT22;45702;52.982;6.658;2023-04-25T01:08:08;7.00;99.90
58865;DHT22;45702;52.982;6.658;2023-04-25T01:10:34;6.80;99.90
58865;DHT22;45702;52.982;6.658;2023-04-25T01:12:59;6.90;99.90
58865;DHT22;45702;52.982;6.658;2023-04-25T01:15:25;6.90;99.90
58865;DHT22;45702;52.982;6.658;2023-04-25T01:17:51;6.90;99.90
58865;DHT22;45702;52.982;6.658;2023-04-25T01:20:21;6.80;99.90
58865;DHT22;45702;52.982;6.658;2023-04-25T01:22:48;6.80;99.90
58865;DHT22;45702;52.982;6.658;2023-04-25T01:25:14;6.70;99.90
58865;DHT22;45702;52.982;6.658;2023-04-25T01:27:40;6.70;99.90
58865;DHT22;45702;52.982;6.658;2023-04-25T01:30:07;6.70;99.90
58865;DHT22;45702;52.982;6.658;2023-04-25T01:32:33;6.70;99.90
58865;DHT22;45702;52.982;6.658;2023-04-25T01:35:09;6.60;99.90
58865;DHT22;45702;52.982;6.658;2023-04-25T01:37:37;6.60;99.90
58865;DHT22;45702;52.982;6.658;2023-04-25T01:40:04;6.60;99.90
58865;DHT22;45702;52.982;6.658;2023-04-25T01:42:32;6.50;99.90
58865;DHT22;45702;52.982;6.658;2023-04-25T01:44:58;6.50;99.90
58865;DHT22;45702;52.982;6.658;2023-04-25T01:47:23;6.50;99.90
58865;DHT22;45702;52.982;6.658;2023-04-25T01:49:49;6.50;99.90
58865;DHT22;45702;52.982;6.658;2023-04-25T01:52:15;6.50;99.90
58865;DHT22;45702;52.982;6.658;2023-04-25T01:54:41;6.50;99.90
58865;DHT22;45702;52.982;6.658;2023-04-25T01:57:10;6.50;99.90
58865;DHT22;45702;52.982;6.658;2023-04-25T01:59:36;6.50;99.90
58865;DHT22;45702;52.982;6.658;2023-04-25T02:02:02;6.50;99.90
58865;DHT22;45702;52.982;6.658;2023-04-25T02:04:31;6.50;99.90
58865;DHT22;45702;52.982;6.658;2023-04-25T02:06:57;6.50;99.90
58865;DHT22;45702;52.982;6.658;2023-04-25T02:09:22;6.40;99.90
58865;DHT22;45702;52.982;6.658;2023-04-25T02:11:49;6.50;99.90
58865;DHT22;45702;52.982;6.658;2023-04-25T02:14:15;6.50;99.90
58865;DHT22;45702;52.982;6.658;2023-04-25T02:16:40;6.50;99.90
58865;DHT22;45702;52.982;6.658;2023-04-25T02:19:09;6.50;99.90
58865;DHT22;45702;52.982;6.658;2023-04-25T02:21:36;6.50;99.90
58865;DHT22;45702;52.982;6.658;2023-04-25T02:24:02;6.40;99.90
58865;DHT22;45702;52.982;6.658;2023-04-25T02:26:28;6.50;99.90
58865;DHT22;45702;52.982;6.658;2023-04-25T02:28:54;6.40;99.90
58865;DHT22;45702;52.982;6.658;2023-04-25T02:31:20;6.50;99.90
58865;DHT22;45702;52.982;6.658;2023-04-25T02:33:46;6.40;99.90
58865;DHT22;45702;52.982;6.658;2023-04-25T02:36:12;6.40;99.90
58865;DHT22;45702;52.982;6.658;2023-04-25T02:38:37;6.40;99.90
58865;DHT22;45702;52.982;6.658;2023-04-25T02:41:03;6.40;99.90
58865;DHT22;45702;52.982;6.658;2023-04-25T02:43:29;6.40;99.90
58865;DHT22;45702;52.982;6.658;2023-04-25T02:45:55;6.40;99.90
58865;DHT22;45702;52.982;6.658;2023-04-25T02:48:21;6.40;99.90
58865;DHT22;45702;52.982;6.658;2023-04-25T02:50:46;6.40;99.90
58865;DHT22;45702;52.982;6.658;2023-04-25T02:53:12;6.40;99.90
58865;DHT22;45702;52.982;6.658;2023-04-25T02:55:38;6.40;99.90
58865;DHT22;45702;52.982;6.658;2023-04-25T02:58:04;6.40;99.90
58865;DHT22;45702;52.982;6.658;2023-04-25T03:00:29;6.40;99.90
58865;DHT22;45702;52.982;6.658;2023-04-25T03:02:55;6.30;99.90
58865;DHT22;45702;52.982;6.658;2023-04-25T03:05:21;6.40;99.90
58865;DHT22;45702;52.982;6.658;2023-04-25T03:07:47;6.40;99.90
58865;DHT22;45702;52.982;6.658;2023-04-25T03:10:13;6.40;99.90
58865;DHT22;45702;52.982;6.658;2023-04-25T03:12:38;6.40;99.90
58865;DHT22;45702;52.982;6.658;2023-04-25T03:15:04;6.30;99.90
58865;DHT22;45702;52.982;6.658;2023-04-25T03:17:31;6.40;99.90
58865;DHT22;45702;52.982;6.658;2023-04-25T03:19:57;6.40;99.90
58865;DHT22;45702;52.982;6.658;2023-04-25T03:22:23;6.30;99.90
58865;DHT22;45702;52.982;6.658;2023-04-25T03:24:50;6.30;99.90
58865;DHT22;45702;52.982;6.658;2023-04-25T03:27:16;6.30;99.90
58865;DHT22;45702;52.982;6.658;2023-04-25T03:29:41;6.40;99.90
58865;DHT22;45702;52.982;6.658;2023-04-25T03:32:07;6.40;99.90
58865;DHT22;45702;52.982;6.658;2023-04-25T03:34:33;6.40;99.90
58865;DHT22;45702;52.982;6.658;2023-04-25T03:36:59;6.30;99.90
58865;DHT22;45702;52.982;6.658;2023-04-25T03:39:25;6.40;99.90
58865;DHT22;45702;52.982;6.658;2023-04-25T03:41:51;6.30;99.90
58865;DHT22;45702;52.982;6.658;2023-04-25T03:44:16;6.40;99.90
58865;DHT22;45702;52.982;6.658;2023-04-25T03:46:42;6.40;99.90
58865;DHT22;45702;52.982;6.658;2023-04-25T03:49:08;6.30;99.90
58865;DHT22;45702;52.982;6.658;2023-04-25T03:51:34;6.30;99.90
58865;DHT22;45702;52.982;6.658;2023-04-25T03:53:59;6.30;99.90
58865;DHT22;45702;52.982;6.658;2023-04-25T03:56:25;6.30;99.90
58865;DHT22;45702;52.982;6.658;2023-04-25T03:58:51;6.30;99.90
58865;DHT22;45702;52.982;6.658;2023-04-25T04:01:16;6.30;99.90
58865;DHT22;45702;52.982;6.658;2023-04-25T04:03:42;6.30;99.90
58865;DHT22;45702;52.982;6.658;2023-04-25T04:06:08;6.30;99.90
58865;DHT22;45702;52.982;6.658;2023-04-25T04:08:34;6.20;99.90
58865;DHT22;45702;52.982;6.658;2023-04-25T04:11:00;6.20;99.90
58865;DHT22;45702;52.982;6.658;2023-04-25T04:13:27;6.20;99.90
58865;DHT22;45702;52.982;6.658;2023-04-25T04:15:53;6.20;99.90
58865;DHT22;45702;52.982;6.658;2023-04-25T04:18:19;6.10;99.90
58865;DHT22;45702;52.982;6.658;2023-04-25T04:20:45;6.10;99.90
58865;DHT22;45702;52.982;6.658;2023-04-25T04:23:11;6.00;99.90
58865;DHT22;45702;52.982;6.658;2023-04-25T04:25:37;6.00;99.90
58865;DHT22;45702;52.982;6.658;2023-04-25T04:28:03;5.90;99.90
58865;DHT22;45702;52.982;6.658;2023-04-25T04:30:29;5.80;99.90
58865;DHT22;45702;52.982;6.658;2023-04-25T04:32:55;5.80;99.90
58865;DHT22;45702;52.982;6.658;2023-04-25T04:35:22;5.70;99.90
58865;DHT22;45702;52.982;6.658;2023-04-25T04:37:47;5.80;99.90
58865;DHT22;45702;52.982;6.658;2023-04-25T04:40:14;5.80;99.90
58865;DHT22;45702;52.982;6.658;2023-04-25T04:42:43;5.80;99.90
58865;DHT22;45702;52.982;6.658;2023-04-25T04:45:10;5.80;99.90
58865;DHT22;45702;52.982;6.658;2023-04-25T04:47:37;5.80;99.90
58865;DHT22;45702;52.982;6.658;2023-04-25T04:50:03;5.80;99.90
58865;DHT22;45702;52.982;6.658;2023-04-25T04:52:30;5.80;99.90
58865;DHT22;45702;52.982;6.658;2023-04-25T04:54:55;5.70;99.90
58865;DHT22;45702;52.982;6.658;2023-04-25T04:57:21;5.70;99.90
58865;DHT22;45702;52.982;6.658;2023-04-25T04:59:47;5.70;99.90
58865;DHT22;45702;52.982;6.658;2023-04-25T05:02:13;5.70;99.90
58865;DHT22;45702;52.982;6.658;2023-04-25T05:04:38;5.70;99.90
58865;DHT22;45702;52.982;6.658;2023-04-25T05:07:04;5.70;99.90
58865;DHT22;45702;52.982;6.658;2023-04-25T05:09:30;5.60;99.90
58865;DHT22;45702;52.982;6.658;2023-04-25T05:11:55;5.70;99.90
58865;DHT22;45702;52.982;6.658;2023-04-25T05:14:21;5.70;99.90
58865;DHT22;45702;52.982;6.658;2023-04-25T05:16:48;5.70;99.90
58865;DHT22;45702;52.982;6.658;2023-04-25T05:19:13;5.70;99.90
58865;DHT22;45702;52.982;6.658;2023-04-25T05:21:44;5.70;99.90
58865;DHT22;45702;52.982;6.658;2023-04-25T05:24:14;5.80;99.90
58865;DHT22;45702;52.982;6.658;2023-04-25T05:26:40;5.80;99.90
58865;DHT22;45702;52.982;6.658;2023-04-25T05:29:06;5.80;99.90
58865;DHT22;45702;52.982;6.658;2023-04-25T05:31:32;5.90;99.90
58865;DHT22;45702;52.982;6.658;2023-04-25T05:33:58;5.90;99.90
58865;DHT22;45702;52.982;6.658;2023-04-25T05:36:24;6.00;99.90
58865;DHT22;45702;52.982;6.658;2023-04-25T05:38:49;6.10;99.80
58865;DHT22;45702;52.982;6.658;2023-04-25T05:41:15;6.10;99.70
58865;DHT22;45702;52.982;6.658;2023-04-25T05:43:41;6.20;99.50
58865;DHT22;45702;52.982;6.658;2023-04-25T05:46:12;6.20;99.70
58865;DHT22;45702;52.982;6.658;2023-04-25T05:48:39;6.30;99.80
58865;DHT22;45702;52.982;6.658;2023-04-25T05:51:05;6.30;99.90
58865;DHT22;45702;52.982;6.658;2023-04-25T05:53:30;6.30;99.80
58865;DHT22;45702;52.982;6.658;2023-04-25T05:55:56;6.40;99.90
58865;DHT22;45702;52.982;6.658;2023-04-25T05:58:22;6.40;99.90
58865;DHT22;45702;52.982;6.658;2023-04-25T06:00:47;6.50;99.80
58865;DHT22;45702;52.982;6.658;2023-04-25T06:03:13;6.60;99.70
58865;DHT22;45702;52.982;6.658;2023-04-25T06:05:42;6.60;99.70
58865;DHT22;45702;52.982;6.658;2023-04-25T06:08:08;6.70;99.60
58865;DHT22;45702;52.982;6.658;2023-04-25T06:10:34;6.80;99.60
58865;DHT22;45702;52.982;6.658;2023-04-25T06:12:59;6.80;99.30
58865;DHT22;45702;52.982;6.658;2023-04-25T06:15:25;6.90;99.20
58865;DHT22;45702;52.982;6.658;2023-04-25T06:17:51;6.90;99.20
58865;DHT22;45702;52.982;6.658;2023-04-25T06:20:17;7.00;99.50
58865;DHT22;45702;52.982;6.658;2023-04-25T06:22:42;7.00;99.20
58865;DHT22;45702;52.982;6.658;2023-04-25T06:25:08;7.10;99.20
58865;DHT22;45702;52.982;6.658;2023-04-25T06:27:34;7.10;99.30
58865;DHT22;45702;52.982;6.658;2023-04-25T06:30:00;7.10;99.00
58865;DHT22;45702;52.982;6.658;2023-04-25T06:32:25;7.10;98.80
58865;DHT22;45702;52.982;6.658;2023-04-25T06:34:53;7.20;98.80
58865;DHT22;45702;52.982;6.658;2023-04-25T06:37:18;7.30;98.50
58865;DHT22;45702;52.982;6.658;2023-04-25T06:39:44;7.30;98.20
58865;DHT22;45702;52.982;6.658;2023-04-25T06:42:10;7.40;98.20
58865;DHT22;45702;52.982;6.658;2023-04-25T06:44:36;7.50;98.40
58865;DHT22;45702;52.982;6.658;2023-04-25T06:47:01;7.70;98.10
58865;DHT22;45702;52.982;6.658;2023-04-25T06:49:27;7.80;97.30
58865;DHT22;45702;52.982;6.658;2023-04-25T06:51:53;7.90;97.40
58865;DHT22;45702;52.982;6.658;2023-04-25T06:54:19;7.90;96.30
58865;DHT22;45702;52.982;6.658;2023-04-25T06:56:44;7.90;96.20
58865;DHT22;45702;52.982;6.658;2023-04-25T06:59:10;7.90;95.40
58865;DHT22;45702;52.982;6.658;2023-04-25T07:01:36;7.80;95.00
58865;DHT22;45702;52.982;6.658;2023-04-25T07:04:01;7.70;95.10
58865;DHT22;45702;52.982;6.658;2023-04-25T07:06:27;7.70;95.00
58865;DHT22;45702;52.982;6.658;2023-04-25T07:08:53;7.70;95.00
58865;DHT22;45702;52.982;6.658;2023-04-25T07:11:19;7.80;95.00
58865;DHT22;45702;52.982;6.658;2023-04-25T07:13:45;7.90;94.90
58865;DHT22;45702;52.982;6.658;2023-04-25T07:16:10;8.00;94.30
58865;DHT22;45702;52.982;6.658;2023-04-25T07:18:36;8.10;94.50
58865;DHT22;45702;52.982;6.658;2023-04-25T07:21:02;8.20;94.10
58865;DHT22;45702;52.982;6.658;2023-04-25T07:23:28;8.20;93.10
58865;DHT22;45702;52.982;6.658;2023-04-25T07:25:53;8.20;92.40
58865;DHT22;45702;52.982;6.658;2023-04-25T07:28:19;8.20;92.80
58865;DHT22;45702;52.982;6.658;2023-04-25T07:30:45;8.30;92.60
58865;DHT22;45702;52.982;6.658;2023-04-25T07:33:11;8.30;92.40
58865;DHT22;45702;52.982;6.658;2023-04-25T07:35:37;8.30;92.50
58865;DHT22;45702;52.982;6.658;2023-04-25T07:38:03;8.30;92.40
58865;DHT22;45702;52.982;6.658;2023-04-25T07:40:29;8.30;91.80
58865;DHT22;45702;52.982;6.658;2023-04-25T07:42:55;8.20;92.00
58865;DHT22;45702;52.982;6.658;2023-04-25T07:45:21;8.20;92.10
58865;DHT22;45702;52.982;6.658;2023-04-25T07:47:46;8.10;91.80
58865;DHT22;45702;52.982;6.658;2023-04-25T07:50:12;8.00;92.10
58865;DHT22;45702;52.982;6.658;2023-04-25T07:52:38;8.00;92.20
58865;DHT22;45702;52.982;6.658;2023-04-25T07:55:04;8.00;92.00
58865;DHT22;45702;52.982;6.658;2023-04-25T07:57:30;8.10;92.00
58865;DHT22;45702;52.982;6.658;2023-04-25T07:59:56;8.20;91.70
58865;DHT22;45702;52.982;6.658;2023-04-25T08:02:21;8.40;91.60
58865;DHT22;45702;52.982;6.658;2023-04-25T08:04:47;8.50;91.00
58865;DHT22;45702;52.982;6.658;2023-04-25T08:07:15;8.60;90.00
58865;DHT22;45702;52.982;6.658;2023-04-25T08:09:41;8.60;89.80
58865;DHT22;45702;52.982;6.658;2023-04-25T08:12:06;8.60;86.90
58865;DHT22;45702;52.982;6.658;2023-04-25T08:14:32;8.50;87.10
58865;DHT22;45702;52.982;6.658;2023-04-25T08:17:02;8.50;87.10
58865;DHT22;45702;52.982;6.658;2023-04-25T08:19:29;8.50;87.70
58865;DHT22;45702;52.982;6.658;2023-04-25T08:21:56;8.50;87.60
58865;DHT22;45702;52.982;6.658;2023-04-25T08:24:22;8.40;87.30
58865;DHT22;45702;52.982;6.658;2023-04-25T08:26:48;8.50;87.50
58865;DHT22;45702;52.982;6.658;2023-04-25T08:29:15;8.40;86.60
58865;DHT22;45702;52.982;6.658;2023-04-25T08:31:41;8.40;85.90
58865;DHT22;45702;52.982;6.658;2023-04-25T08:34:06;8.40;85.50
58865;DHT22;45702;52.982;6.658;2023-04-25T08:36:32;8.40;85.00
58865;DHT22;45702;52.982;6.658;2023-04-25T08:38:59;8.50;85.40
58865;DHT22;45702;52.982;6.658;2023-04-25T08:41:25;8.70;85.60
58865;DHT22;45702;52.982;6.658;2023-04-25T08:43:51;8.90;84.30
58865;DHT22;45702;52.982;6.658;2023-04-25T08:46:19;9.00;84.00
58865;DHT22;45702;52.982;6.658;2023-04-25T08:48:45;9.20;82.30
58865;DHT22;45702;52.982;6.658;2023-04-25T08:51:22;9.30;81.30
58865;DHT22;45702;52.982;6.658;2023-04-25T08:53:50;9.30;82.30
58865;DHT22;45702;52.982;6.658;2023-04-25T08:56:17;9.20;84.80
58865;DHT22;45702;52.982;6.658;2023-04-25T08:58:48;9.10;86.20
58865;DHT22;45702;52.982;6.658;2023-04-25T09:01:15;8.80;87.90
58865;DHT22;45702;52.982;6.658;2023-04-25T09:03:43;8.60;90.10
58865;DHT22;45702;52.982;6.658;2023-04-25T09:06:11;8.50;90.50
58865;DHT22;45702;52.982;6.658;2023-04-25T09:08:37;8.50;91.90
58865;DHT22;45702;52.982;6.658;2023-04-25T09:11:06;8.70;91.80
58865;DHT22;45702;52.982;6.658;2023-04-25T09:13:31;8.80;92.00
58865;DHT22;45702;52.982;6.658;2023-04-25T09:15:57;8.80;91.30
58865;DHT22;45702;52.982;6.658;2023-04-25T09:18:28;8.70;91.10
58865;DHT22;45702;52.982;6.658;2023-04-25T09:20:57;8.40;91.60
58865;DHT22;45702;52.982;6.658;2023-04-25T09:23:23;8.00;91.90
58865;DHT22;45702;52.982;6.658;2023-04-25T09:25:51;7.90;92.60
58865;DHT22;45702;52.982;6.658;2023-04-25T09:28:23;7.80;92.90
58865;DHT22;45702;52.982;6.658;2023-04-25T09:30:55;7.70;93.20
58865;DHT22;45702;52.982;6.658;2023-04-25T09:33:20;7.70;93.50
58865;DHT22;45702;52.982;6.658;2023-04-25T09:35:51;7.80;93.50
58865;DHT22;45702;52.982;6.658;2023-04-25T09:38:20;7.90;93.80
58865;DHT22;45702;52.982;6.658;2023-04-25T09:40:48;8.00;93.50
58865;DHT22;45702;52.982;6.658;2023-04-25T09:43:22;8.20;93.20
58865;DHT22;45702;52.982;6.658;2023-04-25T09:45:49;8.40;92.30
58865;DHT22;45702;52.982;6.658;2023-04-25T09:48:27;8.50;92.00
58865;DHT22;45702;52.982;6.658;2023-04-25T09:51:13;8.70;91.10
58865;DHT22;45702;52.982;6.658;2023-04-25T09:53:44;9.00;90.50
58865;DHT22;45702;52.982;6.658;2023-04-25T09:56:12;9.20;88.90
58865;DHT22;45702;52.982;6.658;2023-04-25T09:58:40;9.40;89.70
58865;DHT22;45702;52.982;6.658;2023-04-25T10:01:07;9.70;88.10
58865;DHT22;45702;52.982;6.658;2023-04-25T10:03:36;9.90;86.70
58865;DHT22;45702;52.982;6.658;2023-04-25T10:06:03;9.90;84.00
58865;DHT22;45702;52.982;6.658;2023-04-25T10:08:33;9.50;87.90
58865;DHT22;45702;52.982;6.658;2023-04-25T10:11:04;9.00;90.80
58865;DHT22;45702;52.982;6.658;2023-04-25T10:13:30;8.40;92.30
58865;DHT22;45702;52.982;6.658;2023-04-25T10:16:02;8.00;93.20
58865;DHT22;45702;52.982;6.658;2023-04-25T10:18:29;7.70;94.20
58865;DHT22;45702;52.982;6.658;2023-04-25T10:20:57;7.40;95.20
58865;DHT22;45702;52.982;6.658;2023-04-25T10:23:23;7.20;96.10
58865;DHT22;45702;52.982;6.658;2023-04-25T10:25:51;7.10;96.40
58865;DHT22;45702;52.982;6.658;2023-04-25T10:28:17;7.10;97.40
58865;DHT22;45702;52.982;6.658;2023-04-25T10:33:33;7.30;98.70
58865;DHT22;45702;52.982;6.658;2023-04-25T10:35:59;7.50;99.10
58865;DHT22;45702;52.982;6.658;2023-04-25T10:38:33;7.70;99.60
58865;DHT22;45702;52.982;6.658;2023-04-25T10:41:07;8.00;99.90
58865;DHT22;45702;52.982;6.658;2023-04-25T10:43:36;8.30;99.80
58865;DHT22;45702;52.982;6.658;2023-04-25T10:51:18;9.30;97.20
58865;DHT22;45702;52.982;6.658;2023-04-25T10:53:45;9.50;95.90
58865;DHT22;45702;52.982;6.658;2023-04-25T10:56:21;9.70;94.00
58865;DHT22;45702;52.982;6.658;2023-04-25T10:58:48;9.70;91.00
58865;DHT22;45702;52.982;6.658;2023-04-25T11:01:15;9.70;90.20
58865;DHT22;45702;52.982;6.658;2023-04-25T11:03:42;9.80;87.90
58865;DHT22;45702;52.982;6.658;2023-04-25T11:06:22;10.10;88.60
58865;DHT22;45702;52.982;6.658;2023-04-25T11:08:50;10.40;87.50
58865;DHT22;45702;52.982;6.658;2023-04-25T11:11:19;10.40;83.70
58865;DHT22;45702;52.982;6.658;2023-04-25T11:13:49;10.20;82.10
58865;DHT22;45702;52.982;6.658;2023-04-25T11:16:16;10.10;82.90
58865;DHT22;45702;52.982;6.658;2023-04-25T11:18:43;10.10;82.90
58865;DHT22;45702;52.982;6.658;2023-04-25T11:21:10;10.20;83.40
58865;DHT22;45702;52.982;6.658;2023-04-25T11:23:36;10.30;82.80
58865;DHT22;45702;52.982;6.658;2023-04-25T11:26:03;10.60;84.90
58865;DHT22;45702;52.982;6.658;2023-04-25T11:28:29;10.50;85.60
58865;DHT22;45702;52.982;6.658;2023-04-25T11:30:55;10.20;88.40
58865;DHT22;45702;52.982;6.658;2023-04-25T11:33:26;9.60;90.20
58865;DHT22;45702;52.982;6.658;2023-04-25T11:35:55;9.00;91.50
58865;DHT22;45702;52.982;6.658;2023-04-25T11:38:22;8.60;93.00
58865;DHT22;45702;52.982;6.658;2023-04-25T11:40:51;8.30;93.70
58865;DHT22;45702;52.982;6.658;2023-04-25T11:43:19;8.20;94.80
58865;DHT22;45702;52.982;6.658;2023-04-25T11:45:46;8.10;95.50
58865;DHT22;45702;52.982;6.658;2023-04-25T11:48:12;8.10;95.50
58865;DHT22;45702;52.982;6.658;2023-04-25T11:50:39;8.20;96.20
58865;DHT22;45702;52.982;6.658;2023-04-25T11:53:05;8.40;97.50
58865;DHT22;45702;52.982;6.658;2023-04-25T11:55:31;8.60;98.20
58865;DHT22;45702;52.982;6.658;2023-04-25T11:57:59;8.90;97.60
58865;DHT22;45702;52.982;6.658;2023-04-25T12:00:26;9.10;97.40
58865;DHT22;45702;52.982;6.658;2023-04-25T12:02:53;9.40;96.70
58865;DHT22;45702;52.982;6.658;2023-04-25T12:05:20;9.60;95.50
58865;DHT22;45702;52.982;6.658;2023-04-25T12:07:46;9.80;95.20
58865;DHT22;45702;52.982;6.658;2023-04-25T12:10:13;10.00;94.10
58865;DHT22;45702;52.982;6.658;2023-04-25T12:12:44;9.90;92.80
58865;DHT22;45702;52.982;6.658;2023-04-25T12:17:40;9.90;90.00
58865;DHT22;45702;52.982;6.658;2023-04-25T12:20:32;9.90;86.80
58865;DHT22;45702;52.982;6.658;2023-04-25T12:22:57;10.00;86.20
58865;DHT22;45702;52.982;6.658;2023-04-25T12:25:38;10.20;78.60
58865;DHT22;45702;52.982;6.658;2023-04-25T12:33:21;10.60;75.50
58865;DHT22;45702;52.982;6.658;2023-04-25T12:35:47;10.70;75.90
58865;DHT22;45702;52.982;6.658;2023-04-25T12:38:21;10.80;72.10
58865;DHT22;45702;52.982;6.658;2023-04-25T12:40:47;10.60;73.70
58865;DHT22;45702;52.982;6.658;2023-04-25T12:43:12;10.50;75.40
58865;DHT22;45702;52.982;6.658;2023-04-25T12:45:38;10.40;75.10
58865;DHT22;45702;52.982;6.658;2023-04-25T12:48:04;10.20;75.40
58865;DHT22;45702;52.982;6.658;2023-04-25T12:50:29;10.10;76.50
58865;DHT22;45702;52.982;6.658;2023-04-25T12:52:55;10.20;78.10
58865;DHT22;45702;52.982;6.658;2023-04-25T12:55:21;10.20;77.80
58865;DHT22;45702;52.982;6.658;2023-04-25T12:57:48;10.40;77.40
58865;DHT22;45702;52.982;6.658;2023-04-25T13:00:14;10.60;78.50
58865;DHT22;45702;52.982;6.658;2023-04-25T13:02:43;10.80;77.90
58865;DHT22;45702;52.982;6.658;2023-04-25T13:05:09;11.00;77.20
58865;DHT22;45702;52.982;6.658;2023-04-25T13:07:34;11.30;78.00
58865;DHT22;45702;52.982;6.658;2023-04-25T13:10:00;11.40;78.10
58865;DHT22;45702;52.982;6.658;2023-04-25T13:12:27;11.40;80.50
58865;DHT22;45702;52.982;6.658;2023-04-25T13:14:53;11.20;82.10
58865;DHT22;45702;52.982;6.658;2023-04-25T13:17:19;11.10;82.90
58865;DHT22;45702;52.982;6.658;2023-04-25T13:19:44;11.20;83.70
58865;DHT22;45702;52.982;6.658;2023-04-25T13:22:10;11.30;83.80
58865;DHT22;45702;52.982;6.658;2023-04-25T13:24:36;11.40;83.20
58865;DHT22;45702;52.982;6.658;2023-04-25T13:27:02;11.50;82.60
58865;DHT22;45702;52.982;6.658;2023-04-25T13:29:28;11.50;82.00
58865;DHT22;45702;52.982;6.658;2023-04-25T13:31:53;11.40;81.50
58865;DHT22;45702;52.982;6.658;2023-04-25T13:34:19;11.30;80.70
58865;DHT22;45702;52.982;6.658;2023-04-25T13:36:45;11.10;80.60
58865;DHT22;45702;52.982;6.658;2023-04-25T13:39:10;10.80;79.90
58865;DHT22;45702;52.982;6.658;2023-04-25T13:41:36;10.50;78.50
58865;DHT22;45702;52.982;6.658;2023-04-25T13:44:02;10.10;79.70
58865;DHT22;45702;52.982;6.658;2023-04-25T13:46:28;9.90;79.40
58865;DHT22;45702;52.982;6.658;2023-04-25T13:48:53;9.80;80.10
58865;DHT22;45702;52.982;6.658;2023-04-25T13:51:19;9.90;81.50
58865;DHT22;45702;52.982;6.658;2023-04-25T13:53:45;10.00;81.00
58865;DHT22;45702;52.982;6.658;2023-04-25T13:56:11;10.00;78.80
58865;DHT22;45702;52.982;6.658;2023-04-25T13:58:37;10.30;78.00
58865;DHT22;45702;52.982;6.658;2023-04-25T14:01:03;10.50;76.50
58865;DHT22;45702;52.982;6.658;2023-04-25T14:03:29;10.50;75.20
58865;DHT22;45702;52.982;6.658;2023-04-25T14:05:55;10.40;75.90
58865;DHT22;45702;52.982;6.658;2023-04-25T14:08:21;10.20;76.20
58865;DHT22;45702;52.982;6.658;2023-04-25T14:10:47;10.00;77.40
58865;DHT22;45702;52.982;6.658;2023-04-25T14:13:12;9.70;78.20
58865;DHT22;45702;52.982;6.658;2023-04-25T14:15:38;9.20;81.10
58865;DHT22;45702;52.982;6.658;2023-04-25T14:18:04;8.80;84.20
58865;DHT22;45702;52.982;6.658;2023-04-25T14:20:29;8.60;87.30
58865;DHT22;45702;52.982;6.658;2023-04-25T14:22:55;8.30;89.50
58865;DHT22;45702;52.982;6.658;2023-04-25T14:25:24;8.20;90.60
58865;DHT22;45702;52.982;6.658;2023-04-25T14:27:50;8.30;91.30
58865;DHT22;45702;52.982;6.658;2023-04-25T14:30:17;8.40;91.90
58865;DHT22;45702;52.982;6.658;2023-04-25T14:32:43;8.60;91.60
58865;DHT22;45702;52.982;6.658;2023-04-25T14:35:11;8.70;90.50
58865;DHT22;45702;52.982;6.658;2023-04-25T14:37:37;8.80;90.10
58865;DHT22;45702;52.982;6.658;2023-04-25T14:40:03;8.90;90.00
58865;DHT22;45702;52.982;6.658;2023-04-25T14:42:30;9.10;88.10
58865;DHT22;45702;52.982;6.658;2023-04-25T14:44:57;9.50;87.40
58865;DHT22;45702;52.982;6.658;2023-04-25T14:47:23;9.90;85.80
58865;DHT22;45702;52.982;6.658;2023-04-25T14:49:49;10.40;83.60
58865;DHT22;45702;52.982;6.658;2023-04-25T14:52:20;10.80;83.50
58865;DHT22;45702;52.982;6.658;2023-04-25T14:54:46;11.20;81.40
58865;DHT22;45702;52.982;6.658;2023-04-25T14:57:12;11.20;78.20
58865;DHT22;45702;52.982;6.658;2023-04-25T14:59:38;10.90;78.90
58865;DHT22;45702;52.982;6.658;2023-04-25T15:02:04;10.70;79.30
58865;DHT22;45702;52.982;6.658;2023-04-25T15:04:30;10.50;79.00
58865;DHT22;45702;52.982;6.658;2023-04-25T15:06:56;10.60;77.40
58865;DHT22;45702;52.982;6.658;2023-04-25T15:09:22;10.90;77.90
58865;DHT22;45702;52.982;6.658;2023-04-25T15:11:49;11.20;77.20
58865;DHT22;45702;52.982;6.658;2023-04-25T15:14:16;11.80;76.20
58865;DHT22;45702;52.982;6.658;2023-04-25T15:16:45;12.40;72.50
58865;DHT22;45702;52.982;6.658;2023-04-25T15:19:11;12.70;65.50
58865;DHT22;45702;52.982;6.658;2023-04-25T15:21:37;12.80;63.60
58865;DHT22;45702;52.982;6.658;2023-04-25T15:24:02;13.00;63.90
58865;DHT22;45702;52.982;6.658;2023-04-25T15:26:28;13.00;61.50
58865;DHT22;45702;52.982;6.658;2023-04-25T15:28:54;13.10;60.80
58865;DHT22;45702;52.982;6.658;2023-04-25T15:31:21;13.40;61.20
58865;DHT22;45702;52.982;6.658;2023-04-25T15:33:47;13.90;63.10
58865;DHT22;45702;52.982;6.658;2023-04-25T15:36:12;13.50;62.20
58865;DHT22;45702;52.982;6.658;2023-04-25T15:38:41;12.90;62.40
58865;DHT22;45702;52.982;6.658;2023-04-25T15:41:07;12.50;63.90
58865;DHT22;45702;52.982;6.658;2023-04-25T15:43:33;12.30;66.70
58865;DHT22;45702;52.982;6.658;2023-04-25T15:46:05;12.80;66.00
58865;DHT22;45702;52.982;6.658;2023-04-25T15:48:32;12.60;66.10
58865;DHT22;45702;52.982;6.658;2023-04-25T15:50:58;12.10;65.90
58865;DHT22;45702;52.982;6.658;2023-04-25T15:53:23;11.80;66.30
58865;DHT22;45702;52.982;6.658;2023-04-25T15:55:49;11.50;66.50
58865;DHT22;45702;52.982;6.658;2023-04-25T15:58:15;11.70;66.70